createdAt,value
2018-12-10T00:00:27.807Z,26.90
2018-12-10T00:03:02.377Z,26.90
2018-12-10T00:05:31.446Z,26.80
2018-12-10T00:08:00.515Z,26.90
2018-12-10T00:10:29.781Z,27.00
2018-12-10T00:12:59.359Z,26.90
2018-12-10T00:15:28.444Z,27.00
2018-12-10T00:17:58.999Z,26.90
2018-12-10T00:20:28.048Z,26.90
2018-12-10T00:22:58.832Z,26.90
2018-12-10T00:25:28.280Z,27.00
2018-12-10T00:27:58.095Z,26.90
2018-12-10T00:30:28.281Z,26.80
2018-12-10T00:32:57.920Z,26.90
2018-12-10T00:35:26.991Z,26.90
2018-12-10T00:37:56.712Z,26.80
2018-12-10T00:40:26.060Z,26.90
2018-12-10T00:42:55.826Z,26.90
2018-12-10T00:45:25.717Z,26.80
2018-12-10T00:47:55.723Z,26.90
2018-12-10T00:50:25.965Z,26.90
2018-12-10T00:52:55.682Z,26.90
2018-12-10T00:55:25.140Z,26.90
2018-12-10T00:57:55.126Z,26.90
2018-12-10T01:00:24.164Z,26.90
2018-12-10T01:02:53.222Z,26.90
2018-12-10T01:05:23.403Z,26.90
2018-12-10T01:07:52.562Z,26.90
2018-12-10T01:10:21.611Z,26.90
2018-12-10T01:12:51.591Z,26.90
2018-12-10T01:15:21.467Z,26.90
2018-12-10T01:17:50.528Z,26.90
2018-12-10T01:20:20.785Z,27.00
2018-12-10T01:22:50.868Z,26.90
2018-12-10T01:25:19.969Z,26.90
2018-12-10T01:27:49.568Z,26.90
2018-12-10T01:30:19.121Z,26.90
2018-12-10T01:32:48.229Z,26.80
2018-12-10T01:35:18.380Z,26.90
2018-12-10T01:37:47.523Z,27.00
2018-12-10T01:40:16.588Z,26.90
2018-12-10T01:42:45.725Z,26.90
2018-12-10T01:45:15.655Z,26.90
2018-12-10T01:47:45.316Z,27.00
2018-12-10T01:50:14.383Z,26.90
2018-12-10T01:52:43.892Z,26.90
2018-12-10T01:55:13.399Z,27.00
2018-12-10T01:57:43.211Z,26.90
2018-12-10T02:00:12.258Z,26.80
2018-12-10T02:02:41.315Z,26.90
2018-12-10T02:05:10.431Z,26.90
2018-12-10T02:07:39.556Z,26.90
2018-12-10T02:10:09.632Z,26.90
2018-12-10T02:12:40.758Z,26.90
2018-12-10T02:15:09.800Z,26.90
2018-12-10T02:17:38.975Z,26.90
2018-12-10T02:20:08.175Z,26.90
2018-12-10T02:22:37.222Z,26.90
2018-12-10T02:25:08.049Z,26.90
2018-12-10T02:27:40.002Z,26.90
2018-12-10T02:30:09.864Z,26.90
2018-12-10T02:32:38.992Z,26.90
2018-12-10T02:35:07.924Z,26.90
2018-12-10T02:37:37.616Z,26.90
2018-12-10T02:40:07.024Z,26.90
2018-12-10T02:42:38.099Z,26.80
2018-12-10T02:45:08.442Z,26.80
2018-12-10T02:47:37.623Z,26.90
2018-12-10T02:50:06.855Z,26.90
2018-12-10T02:52:36.852Z,26.70
2018-12-10T02:55:07.296Z,26.80
2018-12-10T02:57:36.978Z,26.80
2018-12-10T03:00:06.206Z,26.80
2018-12-10T03:02:36.077Z,26.80
2018-12-10T03:05:05.547Z,26.80
2018-12-10T03:07:34.762Z,26.90
2018-12-10T03:10:05.689Z,26.80
2018-12-10T03:12:34.752Z,26.80
2018-12-10T03:15:03.787Z,26.80
2018-12-10T03:17:32.890Z,26.80
2018-12-10T03:20:02.064Z,26.80
2018-12-10T03:22:31.191Z,26.90
2018-12-10T03:25:02.264Z,26.90
2018-12-10T03:27:32.507Z,26.80
2018-12-10T03:30:02.838Z,26.90
2018-12-10T03:32:31.959Z,26.90
2018-12-10T03:35:01.047Z,26.90
2018-12-10T03:37:30.271Z,26.90
2018-12-10T03:40:00.195Z,26.80
2018-12-10T03:42:29.804Z,26.80
2018-12-10T03:45:00.591Z,26.80
2018-12-10T03:47:31.005Z,26.80
2018-12-10T03:50:00.338Z,26.90
2018-12-10T03:52:29.397Z,26.90
2018-12-10T03:54:59.471Z,26.80
2018-12-10T03:57:29.210Z,26.80
2018-12-10T03:59:58.285Z,26.80
2018-12-10T04:02:27.321Z,26.80
2018-12-10T04:04:56.452Z,26.90
2018-12-10T04:07:27.012Z,26.80
2018-12-10T04:09:56.080Z,26.80
2018-12-10T04:12:25.129Z,26.90
2018-12-10T04:14:54.181Z,26.90
2018-12-10T04:17:23.227Z,26.80
2018-12-10T04:19:52.357Z,26.80
2018-12-10T04:22:22.295Z,26.80
2018-12-10T04:24:51.379Z,26.90
2018-12-10T04:27:21.061Z,26.90
2018-12-10T04:29:51.310Z,26.90
2018-12-10T04:32:20.356Z,26.90
2018-12-10T04:34:49.407Z,26.80
2018-12-10T04:37:19.315Z,26.90
2018-12-10T04:39:49.180Z,26.90
2018-12-10T04:42:18.237Z,26.90
2018-12-10T04:44:47.895Z,26.90
2018-12-10T04:47:16.933Z,26.90
2018-12-10T04:49:45.986Z,26.80
2018-12-10T04:52:15.311Z,26.90
2018-12-10T04:54:44.991Z,26.90
2018-12-10T04:57:15.069Z,26.80
2018-12-10T04:59:44.132Z,26.90
2018-12-10T05:02:13.180Z,26.90
2018-12-10T05:04:42.336Z,26.80
2018-12-10T05:07:12.148Z,26.90
2018-12-10T05:09:41.248Z,26.90
2018-12-10T05:12:10.565Z,26.90
2018-12-10T05:14:39.697Z,26.80
2018-12-10T05:17:08.752Z,26.90
2018-12-10T05:19:38.344Z,26.90
2018-12-10T05:22:07.441Z,26.80
2018-12-10T05:24:36.497Z,26.80
2018-12-10T05:27:06.764Z,26.80
2018-12-10T05:29:36.688Z,26.80
2018-12-10T05:32:06.423Z,26.90
2018-12-10T05:34:36.706Z,26.90
2018-12-10T05:37:05.789Z,26.90
2018-12-10T05:39:35.494Z,26.90
2018-12-10T05:42:05.243Z,26.90
2018-12-10T05:44:34.786Z,26.80
2018-12-10T05:47:04.119Z,26.80
2018-12-10T05:49:33.167Z,26.80
2018-12-10T05:52:02.409Z,26.90
2018-12-10T05:54:32.292Z,26.90
2018-12-10T05:57:02.084Z,26.80
2018-12-10T05:59:31.348Z,26.90
2018-12-10T06:02:01.180Z,26.80
2018-12-10T06:04:30.773Z,26.80
2018-12-10T06:07:00.652Z,26.90
2018-12-10T06:09:29.691Z,26.80
2018-12-10T06:11:58.822Z,26.90
2018-12-10T06:14:27.905Z,26.90
2018-12-10T06:16:57.473Z,26.80
2018-12-10T06:19:26.689Z,26.90
2018-12-10T06:21:55.746Z,26.90
2018-12-10T06:24:25.496Z,26.80
2018-12-10T06:26:55.911Z,26.90
2018-12-10T06:29:25.923Z,26.90
2018-12-10T06:31:55.628Z,26.90
2018-12-10T06:34:24.813Z,26.80
2018-12-10T06:36:55.060Z,26.80
2018-12-10T06:39:24.786Z,26.90
2018-12-10T06:41:53.835Z,26.80
2018-12-10T06:44:23.775Z,24.70
2018-12-10T06:46:52.852Z,25.10
2018-12-10T06:49:22.326Z,25.80
2018-12-10T06:51:52.028Z,26.20
2018-12-10T06:54:21.507Z,26.50
2018-12-10T06:56:51.172Z,26.70
2018-12-10T06:59:20.241Z,26.80
2018-12-10T07:01:50.553Z,26.90
2018-12-10T07:04:19.749Z,27.00
2018-12-10T07:06:48.795Z,27.10
2018-12-10T07:09:17.872Z,27.10
2018-12-10T07:11:46.913Z,27.10
2018-12-10T07:14:16.552Z,27.20
2018-12-10T07:16:45.595Z,27.20
2018-12-10T07:19:15.084Z,27.20
2018-12-10T07:21:44.919Z,26.20
2018-12-10T07:24:14.016Z,24.90
2018-12-10T07:26:43.795Z,23.90
2018-12-10T07:29:12.843Z,24.20
2018-12-10T07:31:42.740Z,24.10
2018-12-10T07:34:13.161Z,25.20
2018-12-10T07:36:43.624Z,26.00
2018-12-10T07:39:13.919Z,26.40
2018-12-10T07:41:43.116Z,26.70
2018-12-10T07:44:12.852Z,26.80
2018-12-10T07:46:42.729Z,27.00
2018-12-10T07:49:11.792Z,27.10
2018-12-10T07:51:40.955Z,27.20
2018-12-10T07:54:10.459Z,27.20
2018-12-10T07:56:40.387Z,27.20
2018-12-10T07:59:10.132Z,27.40
2018-12-10T08:01:39.204Z,27.40
2018-12-10T08:04:08.255Z,27.40
2018-12-10T08:06:37.921Z,27.30
2018-12-10T08:09:07.536Z,27.30
2018-12-10T08:11:37.073Z,27.20
2018-12-10T08:14:07.161Z,27.30
2018-12-10T08:16:36.945Z,27.40
2018-12-10T08:19:07.320Z,27.50
2018-12-10T08:21:36.936Z,27.50
2018-12-10T08:24:06.015Z,27.30
2018-12-10T08:26:35.915Z,27.30
2018-12-10T08:29:07.474Z,27.30
2018-12-10T08:31:37.204Z,27.30
2018-12-10T08:34:06.314Z,27.30
2018-12-10T08:36:35.419Z,27.40
2018-12-10T08:39:06.775Z,27.40
2018-12-10T08:41:35.840Z,27.50
2018-12-10T08:44:05.853Z,27.50
2018-12-10T08:46:35.015Z,27.50
2018-12-10T08:49:04.603Z,27.60
2018-12-10T08:51:33.791Z,27.50
2018-12-10T08:54:03.353Z,27.50
2018-12-10T08:56:34.374Z,27.50
2018-12-10T08:59:03.737Z,27.50
2018-12-10T09:01:32.820Z,27.50
2018-12-10T09:04:01.899Z,27.50
2018-12-10T09:06:33.372Z,27.50
2018-12-10T09:09:02.388Z,27.60
2018-12-10T09:11:31.591Z,27.60
2018-12-10T09:14:01.652Z,27.70
2018-12-10T09:16:30.811Z,27.60
2018-12-10T09:19:01.644Z,27.60
2018-12-10T09:21:30.842Z,27.60
2018-12-10T09:23:59.945Z,27.60
2018-12-10T09:26:29.455Z,27.70
2018-12-10T09:28:59.175Z,27.70
2018-12-10T09:31:28.535Z,27.70
2018-12-10T09:33:57.599Z,27.60
2018-12-10T09:36:26.700Z,27.60
2018-12-10T09:38:55.764Z,27.60
2018-12-10T09:41:25.179Z,27.60
2018-12-10T09:43:54.635Z,27.60
2018-12-10T09:46:27.672Z,27.50
2018-12-10T09:48:55.304Z,27.50
2018-12-10T09:51:24.344Z,27.60
2018-12-10T09:53:54.094Z,27.50
2018-12-10T09:56:23.924Z,27.60
2018-12-10T09:58:53.591Z,27.60
2018-12-10T10:01:22.640Z,27.60
2018-12-10T10:03:51.880Z,27.60
2018-12-10T10:06:21.775Z,27.60
2018-12-10T10:08:50.947Z,27.60
2018-12-10T10:11:20.080Z,27.60
2018-12-10T10:13:49.874Z,27.60
2018-12-10T10:16:20.072Z,27.60
2018-12-10T10:18:49.699Z,27.60
2018-12-10T10:21:18.748Z,27.50
2018-12-10T10:23:48.503Z,27.50
2018-12-10T10:26:18.329Z,27.50
2018-12-10T10:28:47.484Z,27.50
2018-12-10T10:31:20.136Z,27.50
2018-12-10T10:33:49.167Z,27.40
2018-12-10T10:36:18.428Z,27.50
2018-12-10T10:38:47.523Z,27.40
2018-12-10T10:41:16.611Z,27.40
2018-12-10T10:43:46.340Z,27.40
2018-12-10T10:46:15.396Z,27.30
2018-12-10T10:48:44.575Z,27.30
2018-12-10T10:51:14.427Z,27.30
2018-12-10T10:53:44.203Z,27.30
2018-12-10T10:56:14.469Z,27.40
2018-12-10T10:58:43.561Z,27.30
2018-12-10T11:01:18.167Z,27.30
2018-12-10T11:03:47.235Z,27.40
2018-12-10T11:06:16.435Z,27.30
2018-12-10T11:08:45.493Z,27.10
2018-12-10T11:11:15.564Z,27.10
2018-12-10T11:13:45.345Z,27.10
2018-12-10T11:16:14.505Z,27.00
2018-12-10T11:18:43.561Z,27.00
2018-12-10T11:21:13.489Z,27.00
2018-12-10T11:23:43.080Z,27.00
2018-12-10T11:26:13.321Z,27.00
2018-12-10T11:28:42.420Z,27.00
2018-12-10T11:31:17.134Z,26.90
2018-12-10T11:33:42.757Z,26.90
2018-12-10T11:36:11.900Z,27.00
2018-12-10T11:38:40.988Z,26.90
2018-12-10T11:41:10.088Z,27.10
2018-12-10T11:43:39.705Z,27.10
2018-12-10T11:46:09.548Z,27.10
2018-12-10T11:48:39.116Z,27.10
2018-12-10T11:51:08.164Z,27.00
2018-12-10T11:53:38.392Z,27.00
2018-12-10T11:56:08.601Z,27.00
2018-12-10T11:58:37.713Z,27.00
2018-12-10T12:01:07.245Z,27.00
2018-12-10T12:03:37.584Z,27.10
2018-12-10T12:06:06.699Z,27.10
2018-12-10T12:08:36.203Z,27.10
2018-12-10T12:11:05.893Z,27.10
2018-12-10T12:13:35.475Z,27.20
2018-12-10T12:16:04.647Z,27.10
2018-12-10T12:18:34.260Z,27.10
2018-12-10T12:21:04.974Z,27.20
2018-12-10T12:23:35.431Z,27.20
2018-12-10T12:26:05.142Z,27.20
2018-12-10T12:28:34.232Z,27.20
2018-12-10T12:31:03.411Z,27.20
2018-12-10T12:33:32.472Z,27.20
2018-12-10T12:36:01.564Z,27.20
2018-12-10T12:38:31.283Z,27.20
2018-12-10T12:41:00.357Z,27.20
2018-12-10T12:43:29.409Z,27.30
2018-12-10T12:45:58.766Z,27.30
2018-12-10T12:48:27.917Z,27.20
2018-12-10T12:50:56.951Z,27.30
2018-12-10T12:53:26.772Z,27.30
2018-12-10T12:55:56.816Z,27.20
2018-12-10T12:58:26.728Z,27.30
2018-12-10T13:00:59.833Z,27.30
2018-12-10T13:03:27.073Z,27.30
2018-12-10T13:05:56.619Z,27.30
2018-12-10T13:08:30.967Z,27.30
2018-12-10T13:10:57.104Z,27.40
2018-12-10T13:13:26.891Z,27.40
2018-12-10T13:15:56.697Z,27.30
2018-12-10T13:18:26.537Z,27.30
2018-12-10T13:20:55.660Z,27.40
2018-12-10T13:23:25.953Z,27.40
2018-12-10T13:25:55.159Z,27.40
2018-12-10T13:28:24.900Z,27.40
2018-12-10T13:30:54.356Z,27.40
2018-12-10T13:33:23.425Z,27.40
2018-12-10T13:35:52.617Z,27.40
2018-12-10T13:38:21.677Z,27.40
2018-12-10T13:40:51.115Z,27.40
2018-12-10T13:43:21.007Z,27.30
2018-12-10T13:45:50.711Z,27.40
2018-12-10T13:48:20.593Z,27.50
2018-12-10T13:50:49.800Z,27.40
2018-12-10T13:53:19.855Z,27.40
2018-12-10T13:55:50.350Z,27.40
2018-12-10T13:58:20.134Z,27.40
2018-12-10T14:00:51.076Z,27.40
2018-12-10T14:03:20.946Z,27.40
2018-12-10T14:05:50.213Z,27.40
2018-12-10T14:08:19.381Z,27.40
2018-12-10T14:10:48.717Z,27.40
2018-12-10T14:13:19.183Z,27.40
2018-12-10T14:15:49.786Z,27.40
2018-12-10T14:18:18.871Z,27.40
2018-12-10T14:20:47.985Z,27.40
2018-12-10T14:23:18.303Z,27.40
2018-12-10T14:25:47.931Z,27.30
2018-12-10T14:28:17.638Z,27.20
2018-12-10T14:30:47.922Z,27.20
2018-12-10T14:33:17.041Z,27.10
2018-12-10T14:35:46.580Z,27.10
2018-12-10T14:38:15.687Z,27.10
2018-12-10T14:40:44.882Z,27.20
2018-12-10T14:43:14.639Z,27.20
2018-12-10T14:45:45.131Z,27.20
2018-12-10T14:48:14.574Z,27.20
2018-12-10T14:50:44.576Z,27.20
2018-12-10T14:53:14.641Z,27.30
2018-12-10T14:55:44.192Z,27.30
2018-12-10T14:58:14.065Z,27.30
2018-12-10T15:00:43.207Z,27.40
2018-12-10T15:03:12.887Z,27.40
2018-12-10T15:05:41.994Z,27.40
2018-12-10T15:08:11.092Z,27.40
2018-12-10T15:10:41.060Z,27.40
2018-12-10T15:13:10.289Z,27.40
2018-12-10T15:15:39.501Z,27.30
2018-12-10T15:18:10.104Z,27.40
2018-12-10T15:20:39.881Z,27.40
2018-12-10T15:23:09.884Z,27.40
2018-12-10T15:25:38.962Z,27.40
2018-12-10T15:28:08.941Z,27.40
2018-12-10T15:30:38.822Z,27.40
2018-12-10T15:33:07.973Z,27.40
2018-12-10T15:35:37.427Z,27.40
2018-12-10T15:38:06.587Z,27.40
2018-12-10T15:40:36.555Z,27.40
2018-12-10T15:43:05.696Z,27.40
2018-12-10T15:45:35.655Z,27.40
2018-12-10T15:48:05.567Z,27.40
2018-12-10T15:50:34.790Z,27.40
2018-12-10T15:53:04.285Z,27.30
2018-12-10T15:55:33.794Z,27.30
2018-12-10T15:58:04.015Z,27.30
2018-12-10T16:00:33.163Z,27.30
2018-12-10T16:03:02.429Z,27.30
2018-12-10T16:05:32.254Z,27.30
2018-12-10T16:08:01.701Z,27.30
2018-12-10T16:10:30.792Z,27.30
2018-12-10T16:13:00.916Z,27.30
2018-12-10T16:15:30.420Z,27.30
2018-12-10T16:18:00.359Z,27.30
2018-12-10T16:20:29.488Z,27.30
2018-12-10T16:22:58.722Z,27.30
2018-12-10T16:25:27.868Z,26.50
2018-12-10T16:27:57.437Z,24.30
2018-12-10T16:30:26.892Z,24.80
2018-12-10T16:32:56.235Z,25.90
2018-12-10T16:35:25.901Z,26.50
2018-12-10T16:37:56.754Z,26.80
2018-12-10T16:40:26.059Z,27.00
2018-12-10T16:42:56.215Z,27.20
2018-12-10T16:45:25.791Z,27.30
2018-12-10T16:47:55.268Z,27.40
2018-12-10T16:50:24.475Z,27.30
2018-12-10T16:52:54.938Z,27.40
2018-12-10T16:55:24.237Z,27.50
2018-12-10T16:57:53.956Z,27.50
2018-12-10T17:00:23.248Z,27.60
2018-12-10T17:02:52.521Z,27.60
2018-12-10T17:05:28.350Z,27.60
2018-12-10T17:07:58.419Z,27.60
2018-12-10T17:10:27.487Z,27.60
2018-12-10T17:12:56.583Z,27.60
2018-12-10T17:15:27.209Z,27.70
2018-12-10T17:17:56.815Z,27.60
2018-12-10T17:20:27.392Z,27.60
2018-12-10T17:22:57.111Z,27.60
2018-12-10T17:25:26.596Z,27.50
2018-12-10T17:27:56.239Z,27.50
2018-12-10T17:30:26.033Z,27.50
2018-12-10T17:32:56.168Z,27.50
2018-12-10T17:35:25.756Z,27.60
2018-12-10T17:37:55.540Z,27.50
2018-12-10T17:40:24.644Z,27.50
2018-12-10T17:42:53.843Z,27.50
2018-12-10T17:45:23.080Z,27.50
2018-12-10T17:47:52.443Z,27.50
2018-12-10T17:50:23.007Z,27.50
2018-12-10T17:52:52.826Z,27.50
2018-12-10T17:55:23.204Z,27.50
2018-12-10T17:57:52.733Z,27.50
2018-12-10T18:00:21.820Z,27.50
2018-12-10T18:02:50.943Z,27.50
2018-12-10T18:05:20.985Z,27.50
2018-12-10T18:07:51.678Z,27.50
2018-12-10T18:10:20.839Z,27.50
2018-12-10T18:12:53.052Z,27.50
2018-12-10T18:15:22.899Z,27.50
2018-12-10T18:17:52.449Z,27.50
2018-12-10T18:20:22.117Z,27.50
2018-12-10T18:22:51.316Z,27.50
2018-12-10T18:25:20.400Z,27.40
2018-12-10T18:27:50.788Z,27.40
2018-12-10T18:30:20.139Z,27.50
2018-12-10T18:32:50.111Z,27.50
2018-12-10T18:35:19.928Z,27.50
2018-12-10T18:37:49.012Z,27.40
2018-12-10T18:40:18.254Z,27.40
2018-12-10T18:42:47.404Z,27.40
2018-12-10T18:45:17.912Z,27.40
2018-12-10T18:47:47.120Z,27.40
2018-12-10T18:50:16.220Z,27.40
2018-12-10T18:52:46.398Z,27.40
2018-12-10T18:55:16.691Z,27.40
2018-12-10T18:57:47.149Z,27.30
2018-12-10T19:00:16.325Z,27.30
2018-12-10T19:02:46.136Z,27.20
2018-12-10T19:05:15.343Z,27.30
2018-12-10T19:07:45.356Z,27.30
2018-12-10T19:10:14.925Z,27.30
2018-12-10T19:12:44.597Z,27.30
2018-12-10T19:15:14.459Z,27.30
2018-12-10T19:17:44.496Z,27.30
2018-12-10T19:20:14.322Z,27.20
2018-12-10T19:22:44.240Z,27.20
2018-12-10T19:25:13.587Z,27.20
2018-12-10T19:27:43.825Z,27.20
2018-12-10T19:30:15.061Z,27.20
2018-12-10T19:32:46.485Z,27.20
2018-12-10T19:35:16.099Z,27.20
2018-12-10T19:37:45.210Z,27.20
2018-12-10T19:40:14.514Z,27.10
2018-12-10T19:42:43.618Z,27.20
2018-12-10T19:45:13.834Z,27.10
2018-12-10T19:47:42.985Z,27.10
2018-12-10T19:50:12.111Z,27.10
2018-12-10T19:52:42.085Z,27.10
2018-12-10T19:55:12.693Z,27.10
2018-12-10T19:57:42.091Z,27.10
2018-12-10T20:00:12.097Z,27.10
2018-12-10T20:02:41.654Z,27.10
2018-12-10T20:05:10.759Z,27.10
2018-12-10T20:07:40.127Z,27.00
2018-12-10T20:10:10.410Z,27.00
2018-12-10T20:12:39.939Z,27.00
2018-12-10T20:15:09.988Z,27.00
2018-12-10T20:17:40.493Z,27.00
2018-12-10T20:20:10.107Z,27.00
2018-12-10T20:22:40.383Z,27.00
2018-12-10T20:25:09.655Z,27.00
2018-12-10T20:27:39.324Z,27.00
2018-12-10T20:30:09.737Z,27.00
2018-12-10T20:32:39.726Z,27.10
2018-12-10T20:35:09.002Z,27.10
2018-12-10T20:37:38.834Z,27.10
2018-12-10T20:40:08.184Z,27.10
2018-12-10T20:42:37.297Z,27.10
2018-12-10T20:45:09.320Z,27.10
2018-12-10T20:47:38.410Z,27.10
2018-12-10T20:50:08.259Z,27.10
2018-12-10T20:52:37.979Z,27.10
2018-12-10T20:55:07.944Z,27.10
2018-12-10T20:57:41.496Z,27.10
2018-12-10T21:00:08.728Z,27.10
2018-12-10T21:02:37.992Z,27.10
2018-12-10T21:05:08.373Z,27.10
2018-12-10T21:07:38.579Z,27.10
2018-12-10T21:10:08.299Z,27.10
2018-12-10T21:12:37.955Z,27.10
2018-12-10T21:15:08.517Z,27.10
2018-12-10T21:17:39.048Z,27.10
2018-12-10T21:20:08.517Z,27.10
2018-12-10T21:22:37.656Z,27.10
2018-12-10T21:25:07.494Z,27.10
2018-12-10T21:27:37.564Z,27.10
2018-12-10T21:30:07.548Z,27.10
2018-12-10T21:32:37.419Z,27.10
2018-12-10T21:35:07.823Z,27.10
2018-12-10T21:37:37.604Z,27.00
2018-12-10T21:40:07.852Z,27.10
2018-12-10T21:42:39.066Z,27.10
2018-12-10T21:45:08.917Z,27.10
2018-12-10T21:47:38.241Z,27.10
2018-12-10T21:50:07.528Z,27.00
2018-12-10T21:52:37.956Z,27.10
2018-12-10T21:55:09.008Z,27.10
2018-12-10T21:57:39.424Z,27.10
2018-12-10T22:00:08.632Z,27.10
2018-12-10T22:02:42.460Z,27.10
2018-12-10T22:05:12.248Z,27.10
2018-12-10T22:07:41.508Z,27.00
2018-12-10T22:10:10.820Z,27.00
2018-12-10T22:12:39.941Z,26.90
2018-12-10T22:15:09.977Z,26.90
2018-12-10T22:17:40.709Z,26.90
2018-12-10T22:20:10.963Z,26.90
2018-12-10T22:22:40.941Z,26.80
2018-12-10T22:25:10.744Z,26.80
2018-12-10T22:27:40.901Z,26.90
2018-12-10T22:30:10.042Z,26.90
2018-12-10T22:32:39.735Z,26.90
2018-12-10T22:35:10.620Z,27.00
2018-12-10T22:37:39.892Z,27.00
2018-12-10T22:40:09.289Z,27.00
2018-12-10T22:42:38.365Z,27.10
2018-12-10T22:45:07.800Z,27.00
2018-12-10T22:47:36.916Z,27.10
2018-12-10T22:50:06.726Z,27.10
2018-12-10T22:52:36.543Z,27.10
2018-12-10T22:55:06.272Z,27.10
2018-12-10T22:57:35.955Z,27.10
2018-12-10T23:00:07.967Z,27.10
2018-12-10T23:02:37.716Z,27.10
2018-12-10T23:05:07.123Z,27.10
2018-12-10T23:07:36.300Z,27.10
2018-12-10T23:10:06.136Z,27.10
2018-12-10T23:12:36.362Z,27.10
2018-12-10T23:15:06.676Z,27.10
2018-12-10T23:17:36.421Z,27.10
2018-12-10T23:20:06.679Z,27.10
2018-12-10T23:22:36.822Z,27.10
2018-12-10T23:25:06.417Z,27.10
2018-12-10T23:27:36.112Z,27.10
2018-12-10T23:30:05.539Z,27.10
2018-12-10T23:32:36.290Z,27.10
2018-12-10T23:35:05.769Z,27.10
2018-12-10T23:37:34.944Z,27.10
2018-12-10T23:40:05.679Z,27.10
2018-12-10T23:42:35.812Z,27.10
2018-12-10T23:45:05.093Z,27.10
2018-12-10T23:47:34.293Z,27.10
2018-12-10T23:50:04.774Z,27.10
2018-12-10T23:52:34.668Z,27.10
2018-12-10T23:55:05.014Z,27.10
2018-12-10T23:57:35.299Z,27.10
